sensor_id;sensor_type;location;lat;lon;timestamp;P1;durP1;ratioP1;P2;durP2;ratioP2
73814;SDS011;62145;55.648;37.602;2023-04-25T00:02:06;15.35;;;6.97;;
73814;SDS011;62145;55.648;37.602;2023-04-25T00:04:32;15.80;;;7.00;;
73814;SDS011;62145;55.648;37.602;2023-04-25T00:06:59;16.70;;;6.75;;
73814;SDS011;62145;55.648;37.602;2023-04-25T00:09:27;15.23;;;7.22;;
73814;SDS011;62145;55.648;37.602;2023-04-25T00:11:53;12.70;;;6.20;;
73814;SDS011;62145;55.648;37.602;2023-04-25T00:14:18;14.33;;;6.70;;
73814;SDS011;62145;55.648;37.602;2023-04-25T00:16:44;16.50;;;6.00;;
73814;SDS011;62145;55.648;37.602;2023-04-25T00:19:10;12.17;;;5.40;;
73814;SDS011;62145;55.648;37.602;2023-04-25T00:21:36;13.67;;;6.47;;
73814;SDS011;62145;55.648;37.602;2023-04-25T00:24:08;12.68;;;5.93;;
73814;SDS011;62145;55.648;37.602;2023-04-25T00:26:34;10.38;;;5.68;;
73814;SDS011;62145;55.648;37.602;2023-04-25T00:29:01;11.88;;;5.70;;
73814;SDS011;62145;55.648;37.602;2023-04-25T00:31:27;11.38;;;5.93;;
73814;SDS011;62145;55.648;37.602;2023-04-25T00:33:54;15.27;;;6.20;;
73814;SDS011;62145;55.648;37.602;2023-04-25T00:36:21;10.48;;;5.68;;
73814;SDS011;62145;55.648;37.602;2023-04-25T00:38:47;12.18;;;6.30;;
73814;SDS011;62145;55.648;37.602;2023-04-25T00:41:13;16.33;;;7.20;;
73814;SDS011;62145;55.648;37.602;2023-04-25T00:43:39;15.43;;;7.18;;
73814;SDS011;62145;55.648;37.602;2023-04-25T00:46:05;16.42;;;7.40;;
73814;SDS011;62145;55.648;37.602;2023-04-25T00:48:31;16.90;;;7.07;;
73814;SDS011;62145;55.648;37.602;2023-04-25T00:50:57;15.00;;;7.13;;
73814;SDS011;62145;55.648;37.602;2023-04-25T00:53:25;17.35;;;7.38;;
73814;SDS011;62145;55.648;37.602;2023-04-25T00:55:52;16.88;;;6.95;;
73814;SDS011;62145;55.648;37.602;2023-04-25T00:58:19;14.10;;;6.93;;
73814;SDS011;62145;55.648;37.602;2023-04-25T01:00:46;15.57;;;7.10;;
73814;SDS011;62145;55.648;37.602;2023-04-25T01:03:13;14.00;;;6.78;;
73814;SDS011;62145;55.648;37.602;2023-04-25T01:05:41;12.15;;;6.68;;
73814;SDS011;62145;55.648;37.602;2023-04-25T01:08:08;13.55;;;7.20;;
73814;SDS011;62145;55.648;37.602;2023-04-25T01:10:34;17.17;;;7.80;;
73814;SDS011;62145;55.648;37.602;2023-04-25T01:13:00;13.77;;;6.80;;
73814;SDS011;62145;55.648;37.602;2023-04-25T01:15:26;14.82;;;7.07;;
73814;SDS011;62145;55.648;37.602;2023-04-25T01:17:52;13.55;;;7.00;;
73814;SDS011;62145;55.648;37.602;2023-04-25T01:20:19;15.63;;;7.05;;
73814;SDS011;62145;55.648;37.602;2023-04-25T01:22:46;14.53;;;7.30;;
73814;SDS011;62145;55.648;37.602;2023-04-25T01:25:12;16.15;;;7.30;;
73814;SDS011;62145;55.648;37.602;2023-04-25T01:27:38;15.25;;;7.05;;
73814;SDS011;62145;55.648;37.602;2023-04-25T01:30:05;13.00;;;7.00;;
73814;SDS011;62145;55.648;37.602;2023-04-25T01:32:32;14.13;;;7.10;;
73814;SDS011;62145;55.648;37.602;2023-04-25T01:35:07;14.30;;;6.97;;
73814;SDS011;62145;55.648;37.602;2023-04-25T01:37:41;17.13;;;7.07;;
73814;SDS011;62145;55.648;37.602;2023-04-25T01:40:10;13.30;;;6.97;;
73814;SDS011;62145;55.648;37.602;2023-04-25T01:42:37;13.60;;;7.20;;
73814;SDS011;62145;55.648;37.602;2023-04-25T01:45:05;12.60;;;6.83;;
73814;SDS011;62145;55.648;37.602;2023-04-25T01:47:32;14.13;;;7.10;;
73814;SDS011;62145;55.648;37.602;2023-04-25T01:50:01;15.73;;;7.03;;
73814;SDS011;62145;55.648;37.602;2023-04-25T01:52:28;17.10;;;6.93;;
73814;SDS011;62145;55.648;37.602;2023-04-25T01:54:54;15.57;;;7.43;;
73814;SDS011;62145;55.648;37.602;2023-04-25T01:57:20;15.15;;;7.07;;
73814;SDS011;62145;55.648;37.602;2023-04-25T01:59:47;15.48;;;7.20;;
73814;SDS011;62145;55.648;37.602;2023-04-25T02:02:31;16.20;;;7.35;;
73814;SDS011;62145;55.648;37.602;2023-04-25T02:04:57;12.68;;;7.00;;
73814;SDS011;62145;55.648;37.602;2023-04-25T02:07:25;15.43;;;6.90;;
73814;SDS011;62145;55.648;37.602;2023-04-25T02:09:52;17.55;;;7.43;;
73814;SDS011;62145;55.648;37.602;2023-04-25T02:12:19;15.38;;;7.30;;
73814;SDS011;62145;55.648;37.602;2023-04-25T02:15:13;13.57;;;7.20;;
73814;SDS011;62145;55.648;37.602;2023-04-25T02:18:09;13.95;;;7.00;;
73814;SDS011;62145;55.648;37.602;2023-04-25T02:20:35;17.60;;;7.47;;
73814;SDS011;62145;55.648;37.602;2023-04-25T02:23:02;19.13;;;9.52;;
73814;SDS011;62145;55.648;37.602;2023-04-25T02:25:29;16.15;;;7.50;;
73814;SDS011;62145;55.648;37.602;2023-04-25T02:27:55;14.43;;;7.05;;
73814;SDS011;62145;55.648;37.602;2023-04-25T02:30:21;12.27;;;7.00;;
73814;SDS011;62145;55.648;37.602;2023-04-25T02:32:46;13.57;;;6.90;;
73814;SDS011;62145;55.648;37.602;2023-04-25T02:35:12;11.50;;;6.70;;
73814;SDS011;62145;55.648;37.602;2023-04-25T02:37:38;11.60;;;6.70;;
73814;SDS011;62145;55.648;37.602;2023-04-25T02:40:05;14.63;;;7.00;;
73814;SDS011;62145;55.648;37.602;2023-04-25T02:42:32;13.93;;;6.90;;
73814;SDS011;62145;55.648;37.602;2023-04-25T02:44:58;15.05;;;6.65;;
73814;SDS011;62145;55.648;37.602;2023-04-25T02:47:25;12.07;;;7.07;;
73814;SDS011;62145;55.648;37.602;2023-04-25T02:49:51;15.73;;;6.72;;
73814;SDS011;62145;55.648;37.602;2023-04-25T02:52:17;12.50;;;6.63;;
73814;SDS011;62145;55.648;37.602;2023-04-25T02:54:49;13.35;;;6.53;;
73814;SDS011;62145;55.648;37.602;2023-04-25T02:57:15;13.90;;;6.78;;
73814;SDS011;62145;55.648;37.602;2023-04-25T02:59:41;11.57;;;6.37;;
73814;SDS011;62145;55.648;37.602;2023-04-25T03:02:06;14.73;;;7.15;;
73814;SDS011;62145;55.648;37.602;2023-04-25T03:04:32;14.97;;;7.43;;
73814;SDS011;62145;55.648;37.602;2023-04-25T03:06:58;14.57;;;7.40;;
73814;SDS011;62145;55.648;37.602;2023-04-25T03:09:24;16.15;;;7.72;;
73814;SDS011;62145;55.648;37.602;2023-04-25T03:11:51;16.42;;;7.57;;
73814;SDS011;62145;55.648;37.602;2023-04-25T03:14:17;13.55;;;7.93;;
73814;SDS011;62145;55.648;37.602;2023-04-25T03:16:43;16.07;;;7.73;;
73814;SDS011;62145;55.648;37.602;2023-04-25T03:19:10;16.08;;;8.25;;
73814;SDS011;62145;55.648;37.602;2023-04-25T03:21:36;15.43;;;8.10;;
73814;SDS011;62145;55.648;37.602;2023-04-25T03:24:02;15.27;;;8.63;;
73814;SDS011;62145;55.648;37.602;2023-04-25T03:26:29;17.52;;;8.35;;
73814;SDS011;62145;55.648;37.602;2023-04-25T03:28:55;17.05;;;8.02;;
73814;SDS011;62145;55.648;37.602;2023-04-25T03:31:21;17.23;;;9.10;;
73814;SDS011;62145;55.648;37.602;2023-04-25T03:33:48;20.33;;;9.23;;
73814;SDS011;62145;55.648;37.602;2023-04-25T03:36:13;18.40;;;9.73;;
73814;SDS011;62145;55.648;37.602;2023-04-25T03:38:40;16.70;;;9.70;;
73814;SDS011;62145;55.648;37.602;2023-04-25T03:41:07;19.00;;;9.80;;
73814;SDS011;62145;55.648;37.602;2023-04-25T03:43:53;17.13;;;9.85;;
73814;SDS011;62145;55.648;37.602;2023-04-25T03:46:19;17.58;;;10.32;;
73814;SDS011;62145;55.648;37.602;2023-04-25T03:48:46;19.73;;;10.47;;
73814;SDS011;62145;55.648;37.602;2023-04-25T03:51:18;16.42;;;10.02;;
73814;SDS011;62145;55.648;37.602;2023-04-25T03:53:44;16.77;;;10.20;;
73814;SDS011;62145;55.648;37.602;2023-04-25T03:56:29;18.83;;;10.50;;
73814;SDS011;62145;55.648;37.602;2023-04-25T03:59:02;17.95;;;10.07;;
73814;SDS011;62145;55.648;37.602;2023-04-25T04:01:29;19.13;;;10.27;;
73814;SDS011;62145;55.648;37.602;2023-04-25T04:03:55;21.42;;;11.40;;
73814;SDS011;62145;55.648;37.602;2023-04-25T04:06:21;18.75;;;9.80;;
73814;SDS011;62145;55.648;37.602;2023-04-25T04:08:50;16.17;;;9.95;;
73814;SDS011;62145;55.648;37.602;2023-04-25T04:11:16;21.00;;;10.27;;
73814;SDS011;62145;55.648;37.602;2023-04-25T04:13:42;20.23;;;10.85;;
73814;SDS011;62145;55.648;37.602;2023-04-25T04:16:08;16.60;;;10.23;;
73814;SDS011;62145;55.648;37.602;2023-04-25T04:18:34;19.35;;;10.75;;
73814;SDS011;62145;55.648;37.602;2023-04-25T04:21:01;15.65;;;10.15;;
73814;SDS011;62145;55.648;37.602;2023-04-25T04:23:29;18.35;;;10.65;;
73814;SDS011;62145;55.648;37.602;2023-04-25T04:25:57;21.65;;;11.10;;
73814;SDS011;62145;55.648;37.602;2023-04-25T04:28:58;19.57;;;11.03;;
73814;SDS011;62145;55.648;37.602;2023-04-25T04:31:39;18.73;;;10.93;;
73814;SDS011;62145;55.648;37.602;2023-04-25T04:34:05;16.88;;;10.27;;
73814;SDS011;62145;55.648;37.602;2023-04-25T04:36:33;18.08;;;10.52;;
73814;SDS011;62145;55.648;37.602;2023-04-25T04:38:58;17.38;;;10.23;;
73814;SDS011;62145;55.648;37.602;2023-04-25T04:41:37;16.47;;;9.70;;
73814;SDS011;62145;55.648;37.602;2023-04-25T04:44:29;18.55;;;10.35;;
73814;SDS011;62145;55.648;37.602;2023-04-25T04:47:24;15.82;;;10.18;;
73814;SDS011;62145;55.648;37.602;2023-04-25T04:50:17;15.85;;;10.32;;
73814;SDS011;62145;55.648;37.602;2023-04-25T04:53:11;15.95;;;10.07;;
73814;SDS011;62145;55.648;37.602;2023-04-25T04:56:03;18.23;;;10.37;;
73814;SDS011;62145;55.648;37.602;2023-04-25T04:58:58;17.48;;;10.02;;
73814;SDS011;62145;55.648;37.602;2023-04-25T05:01:57;16.70;;;10.05;;
73814;SDS011;62145;55.648;37.602;2023-04-25T05:04:41;16.73;;;10.40;;
73814;SDS011;62145;55.648;37.602;2023-04-25T05:07:25;16.00;;;10.18;;
73814;SDS011;62145;55.648;37.602;2023-04-25T05:10:08;16.33;;;10.33;;
73814;SDS011;62145;55.648;37.602;2023-04-25T05:12:34;15.23;;;10.02;;
73814;SDS011;62145;55.648;37.602;2023-04-25T05:15:12;18.48;;;9.73;;
73814;SDS011;62145;55.648;37.602;2023-04-25T05:17:53;18.42;;;9.77;;
73814;SDS011;62145;55.648;37.602;2023-04-25T05:20:44;17.27;;;10.07;;
73814;SDS011;62145;55.648;37.602;2023-04-25T05:23:25;18.17;;;10.32;;
73814;SDS011;62145;55.648;37.602;2023-04-25T05:26:09;18.75;;;11.25;;
73814;SDS011;62145;55.648;37.602;2023-04-25T05:28:52;25.38;;;11.90;;
73814;SDS011;62145;55.648;37.602;2023-04-25T05:31:36;17.95;;;10.93;;
73814;SDS011;62145;55.648;37.602;2023-04-25T05:34:08;16.97;;;10.27;;
73814;SDS011;62145;55.648;37.602;2023-04-25T05:36:52;19.70;;;10.32;;
73814;SDS011;62145;55.648;37.602;2023-04-25T05:39:19;16.27;;;10.27;;
73814;SDS011;62145;55.648;37.602;2023-04-25T05:42:07;17.75;;;9.98;;
73814;SDS011;62145;55.648;37.602;2023-04-25T05:44:52;19.55;;;9.93;;
73814;SDS011;62145;55.648;37.602;2023-04-25T05:47:41;18.03;;;9.77;;
73814;SDS011;62145;55.648;37.602;2023-04-25T05:50:25;17.27;;;9.10;;
73814;SDS011;62145;55.648;37.602;2023-04-25T05:52:54;14.63;;;8.75;;
73814;SDS011;62145;55.648;37.602;2023-04-25T05:55:32;19.08;;;9.20;;
73814;SDS011;62145;55.648;37.602;2023-04-25T05:58:16;14.55;;;8.70;;
73814;SDS011;62145;55.648;37.602;2023-04-25T06:00:42;15.80;;;9.43;;
73814;SDS011;62145;55.648;37.602;2023-04-25T06:03:07;17.45;;;9.70;;
73814;SDS011;62145;55.648;37.602;2023-04-25T06:05:35;14.30;;;8.90;;
73814;SDS011;62145;55.648;37.602;2023-04-25T06:08:01;15.17;;;8.13;;
73814;SDS011;62145;55.648;37.602;2023-04-25T06:10:27;14.40;;;8.10;;
73814;SDS011;62145;55.648;37.602;2023-04-25T06:12:53;12.18;;;7.07;;
73814;SDS011;62145;55.648;37.602;2023-04-25T06:15:21;15.60;;;8.13;;
73814;SDS011;62145;55.648;37.602;2023-04-25T06:17:46;14.93;;;8.00;;
73814;SDS011;62145;55.648;37.602;2023-04-25T06:20:15;15.77;;;8.13;;
73814;SDS011;62145;55.648;37.602;2023-04-25T06:22:41;13.93;;;8.10;;
73814;SDS011;62145;55.648;37.602;2023-04-25T06:25:07;14.33;;;7.90;;
73814;SDS011;62145;55.648;37.602;2023-04-25T06:27:34;14.35;;;7.78;;
73814;SDS011;62145;55.648;37.602;2023-04-25T06:30:01;12.63;;;7.28;;
73814;SDS011;62145;55.648;37.602;2023-04-25T06:32:29;14.45;;;7.25;;
73814;SDS011;62145;55.648;37.602;2023-04-25T06:34:59;16.27;;;7.40;;
73814;SDS011;62145;55.648;37.602;2023-04-25T06:37:26;11.47;;;6.63;;
73814;SDS011;62145;55.648;37.602;2023-04-25T06:39:52;11.32;;;7.30;;
73814;SDS011;62145;55.648;37.602;2023-04-25T06:42:17;12.05;;;6.60;;
73814;SDS011;62145;55.648;37.602;2023-04-25T06:44:51;11.60;;;6.57;;
73814;SDS011;62145;55.648;37.602;2023-04-25T06:47:18;11.98;;;7.07;;
73814;SDS011;62145;55.648;37.602;2023-04-25T06:49:44;12.70;;;6.00;;
73814;SDS011;62145;55.648;37.602;2023-04-25T06:52:10;13.13;;;7.18;;
73814;SDS011;62145;55.648;37.602;2023-04-25T06:54:37;12.10;;;7.55;;
73814;SDS011;62145;55.648;37.602;2023-04-25T06:57:23;11.87;;;7.50;;
73814;SDS011;62145;55.648;37.602;2023-04-25T06:59:49;12.88;;;7.80;;
73814;SDS011;62145;55.648;37.602;2023-04-25T07:02:17;13.57;;;8.45;;
73814;SDS011;62145;55.648;37.602;2023-04-25T07:04:43;13.40;;;7.82;;
73814;SDS011;62145;55.648;37.602;2023-04-25T07:07:11;12.70;;;8.00;;
73814;SDS011;62145;55.648;37.602;2023-04-25T07:09:51;11.67;;;8.13;;
73814;SDS011;62145;55.648;37.602;2023-04-25T07:12:17;14.68;;;8.30;;
73814;SDS011;62145;55.648;37.602;2023-04-25T07:14:43;16.92;;;8.48;;
73814;SDS011;62145;55.648;37.602;2023-04-25T07:17:09;15.75;;;7.65;;
73814;SDS011;62145;55.648;37.602;2023-04-25T07:19:35;12.30;;;7.20;;
73814;SDS011;62145;55.648;37.602;2023-04-25T07:22:02;10.85;;;7.20;;
73814;SDS011;62145;55.648;37.602;2023-04-25T07:24:30;11.80;;;7.45;;
73814;SDS011;62145;55.648;37.602;2023-04-25T07:26:56;14.90;;;7.97;;
73814;SDS011;62145;55.648;37.602;2023-04-25T07:29:29;16.17;;;7.57;;
73814;SDS011;62145;55.648;37.602;2023-04-25T07:31:58;15.07;;;7.30;;
73814;SDS011;62145;55.648;37.602;2023-04-25T07:34:24;10.82;;;6.47;;
73814;SDS011;62145;55.648;37.602;2023-04-25T07:36:50;12.35;;;5.80;;
73814;SDS011;62145;55.648;37.602;2023-04-25T07:39:19;8.80;;;5.53;;
73814;SDS011;62145;55.648;37.602;2023-04-25T07:41:45;11.63;;;5.33;;
73814;SDS011;62145;55.648;37.602;2023-04-25T07:44:17;12.85;;;5.28;;
73814;SDS011;62145;55.648;37.602;2023-04-25T07:46:43;13.98;;;5.60;;
73814;SDS011;62145;55.648;37.602;2023-04-25T07:49:10;8.93;;;5.30;;
73814;SDS011;62145;55.648;37.602;2023-04-25T07:51:36;10.13;;;4.75;;
73814;SDS011;62145;55.648;37.602;2023-04-25T07:54:07;9.00;;;4.67;;
73814;SDS011;62145;55.648;37.602;2023-04-25T07:56:36;10.13;;;4.53;;
73814;SDS011;62145;55.648;37.602;2023-04-25T07:59:02;8.15;;;4.30;;
73814;SDS011;62145;55.648;37.602;2023-04-25T08:01:29;11.25;;;4.10;;
73814;SDS011;62145;55.648;37.602;2023-04-25T08:03:58;8.93;;;4.78;;
73814;SDS011;62145;55.648;37.602;2023-04-25T08:06:36;9.73;;;4.27;;
73814;SDS011;62145;55.648;37.602;2023-04-25T08:09:11;9.07;;;4.05;;
73814;SDS011;62145;55.648;37.602;2023-04-25T08:11:39;9.30;;;5.00;;
73814;SDS011;62145;55.648;37.602;2023-04-25T08:14:07;8.88;;;4.47;;
73814;SDS011;62145;55.648;37.602;2023-04-25T08:16:34;9.00;;;4.57;;
73814;SDS011;62145;55.648;37.602;2023-04-25T08:19:01;8.63;;;4.50;;
73814;SDS011;62145;55.648;37.602;2023-04-25T08:21:26;7.07;;;4.22;;
73814;SDS011;62145;55.648;37.602;2023-04-25T08:23:54;7.57;;;3.97;;
73814;SDS011;62145;55.648;37.602;2023-04-25T08:26:28;8.70;;;4.35;;
73814;SDS011;62145;55.648;37.602;2023-04-25T08:28:57;8.63;;;4.17;;
73814;SDS011;62145;55.648;37.602;2023-04-25T08:31:23;8.05;;;4.15;;
73814;SDS011;62145;55.648;37.602;2023-04-25T08:33:56;8.75;;;3.80;;
73814;SDS011;62145;55.648;37.602;2023-04-25T08:36:31;6.60;;;3.75;;
73814;SDS011;62145;55.648;37.602;2023-04-25T08:38:58;8.07;;;3.90;;
73814;SDS011;62145;55.648;37.602;2023-04-25T08:41:24;7.90;;;3.85;;
73814;SDS011;62145;55.648;37.602;2023-04-25T08:43:51;9.85;;;4.38;;
73814;SDS011;62145;55.648;37.602;2023-04-25T08:46:17;7.88;;;3.83;;
73814;SDS011;62145;55.648;37.602;2023-04-25T08:49:10;8.15;;;4.40;;
73814;SDS011;62145;55.648;37.602;2023-04-25T08:51:44;9.43;;;4.27;;
73814;SDS011;62145;55.648;37.602;2023-04-25T08:54:18;8.52;;;4.22;;
73814;SDS011;62145;55.648;37.602;2023-04-25T08:56:48;8.98;;;4.00;;
73814;SDS011;62145;55.648;37.602;2023-04-25T08:59:18;6.20;;;3.58;;
73814;SDS011;62145;55.648;37.602;2023-04-25T09:01:45;9.02;;;3.55;;
73814;SDS011;62145;55.648;37.602;2023-04-25T09:04:11;6.70;;;3.43;;
73814;SDS011;62145;55.648;37.602;2023-04-25T09:06:39;8.27;;;3.78;;
73814;SDS011;62145;55.648;37.602;2023-04-25T09:09:06;8.68;;;3.72;;
73814;SDS011;62145;55.648;37.602;2023-04-25T09:11:33;10.13;;;4.03;;
73814;SDS011;62145;55.648;37.602;2023-04-25T09:14:14;8.37;;;3.90;;
73814;SDS011;62145;55.648;37.602;2023-04-25T09:17:02;10.05;;;4.65;;
73814;SDS011;62145;55.648;37.602;2023-04-25T09:19:41;7.40;;;4.65;;
73814;SDS011;62145;55.648;37.602;2023-04-25T09:22:19;9.52;;;4.30;;
73814;SDS011;62145;55.648;37.602;2023-04-25T09:24:47;6.68;;;3.42;;
73814;SDS011;62145;55.648;37.602;2023-04-25T09:27:19;9.70;;;3.63;;
73814;SDS011;62145;55.648;37.602;2023-04-25T09:29:58;7.75;;;4.28;;
73814;SDS011;62145;55.648;37.602;2023-04-25T09:32:43;9.13;;;4.47;;
73814;SDS011;62145;55.648;37.602;2023-04-25T09:35:22;7.30;;;4.03;;
73814;SDS011;62145;55.648;37.602;2023-04-25T09:37:52;9.50;;;4.55;;
73814;SDS011;62145;55.648;37.602;2023-04-25T09:40:42;8.40;;;4.27;;
73814;SDS011;62145;55.648;37.602;2023-04-25T09:43:23;7.53;;;4.25;;
73814;SDS011;62145;55.648;37.602;2023-04-25T09:45:50;8.98;;;3.85;;
73814;SDS011;62145;55.648;37.602;2023-04-25T09:48:19;8.50;;;3.40;;
73814;SDS011;62145;55.648;37.602;2023-04-25T09:53:34;8.33;;;3.83;;
73814;SDS011;62145;55.648;37.602;2023-04-25T09:56:21;9.63;;;4.53;;
73814;SDS011;62145;55.648;37.602;2023-04-25T09:58:48;8.05;;;4.20;;
73814;SDS011;62145;55.648;37.602;2023-04-25T10:01:16;7.72;;;4.22;;
73814;SDS011;62145;55.648;37.602;2023-04-25T10:03:55;7.78;;;3.53;;
73814;SDS011;62145;55.648;37.602;2023-04-25T10:06:36;12.80;;;5.50;;
73814;SDS011;62145;55.648;37.602;2023-04-25T10:09:03;8.73;;;4.93;;
73814;SDS011;62145;55.648;37.602;2023-04-25T10:11:30;13.52;;;4.82;;
73814;SDS011;62145;55.648;37.602;2023-04-25T10:13:56;8.93;;;4.50;;
73814;SDS011;62145;55.648;37.602;2023-04-25T10:16:21;7.33;;;3.53;;
73814;SDS011;62145;55.648;37.602;2023-04-25T10:18:48;6.93;;;3.42;;
73814;SDS011;62145;55.648;37.602;2023-04-25T10:21:13;9.07;;;3.15;;
73814;SDS011;62145;55.648;37.602;2023-04-25T10:23:41;7.37;;;3.10;;
73814;SDS011;62145;55.648;37.602;2023-04-25T10:26:10;5.72;;;2.95;;
73814;SDS011;62145;55.648;37.602;2023-04-25T10:28:58;8.82;;;2.97;;
73814;SDS011;62145;55.648;37.602;2023-04-25T10:31:31;7.50;;;2.97;;
73814;SDS011;62145;55.648;37.602;2023-04-25T10:33:59;5.85;;;2.92;;
73814;SDS011;62145;55.648;37.602;2023-04-25T10:36:26;6.47;;;2.97;;
73814;SDS011;62145;55.648;37.602;2023-04-25T10:38:58;6.10;;;2.90;;
73814;SDS011;62145;55.648;37.602;2023-04-25T10:41:34;5.68;;;2.80;;
73814;SDS011;62145;55.648;37.602;2023-04-25T10:44:11;6.95;;;3.10;;
73814;SDS011;62145;55.648;37.602;2023-04-25T10:46:37;8.32;;;3.00;;
73814;SDS011;62145;55.648;37.602;2023-04-25T10:49:03;7.37;;;2.90;;
73814;SDS011;62145;55.648;37.602;2023-04-25T10:51:33;5.53;;;2.80;;
73814;SDS011;62145;55.648;37.602;2023-04-25T10:54:01;8.63;;;3.10;;
73814;SDS011;62145;55.648;37.602;2023-04-25T10:56:31;8.20;;;3.30;;
73814;SDS011;62145;55.648;37.602;2023-04-25T10:59:16;7.10;;;2.88;;
73814;SDS011;62145;55.648;37.602;2023-04-25T11:01:45;7.20;;;2.90;;
73814;SDS011;62145;55.648;37.602;2023-04-25T11:09:29;6.72;;;2.80;;
73814;SDS011;62145;55.648;37.602;2023-04-25T11:11:55;6.65;;;2.60;;
73814;SDS011;62145;55.648;37.602;2023-04-25T11:14:22;6.97;;;2.90;;
73814;SDS011;62145;55.648;37.602;2023-04-25T11:16:58;6.57;;;2.72;;
73814;SDS011;62145;55.648;37.602;2023-04-25T11:19:25;8.40;;;2.80;;
73814;SDS011;62145;55.648;37.602;2023-04-25T11:21:58;8.18;;;2.60;;
73814;SDS011;62145;55.648;37.602;2023-04-25T11:24:28;7.93;;;2.33;;
73814;SDS011;62145;55.648;37.602;2023-04-25T11:26:54;6.27;;;2.43;;
73814;SDS011;62145;55.648;37.602;2023-04-25T11:29:23;5.28;;;2.83;;
73814;SDS011;62145;55.648;37.602;2023-04-25T11:31:50;5.72;;;2.30;;
73814;SDS011;62145;55.648;37.602;2023-04-25T11:34:19;5.75;;;2.20;;
73814;SDS011;62145;55.648;37.602;2023-04-25T11:36:45;5.13;;;2.45;;
73814;SDS011;62145;55.648;37.602;2023-04-25T11:39:14;5.70;;;2.23;;
73814;SDS011;62145;55.648;37.602;2023-04-25T11:41:43;5.15;;;2.30;;
73814;SDS011;62145;55.648;37.602;2023-04-25T11:44:09;6.25;;;2.42;;
73814;SDS011;62145;55.648;37.602;2023-04-25T11:46:35;7.78;;;2.70;;
73814;SDS011;62145;55.648;37.602;2023-04-25T11:49:01;5.13;;;2.20;;
73814;SDS011;62145;55.648;37.602;2023-04-25T11:51:43;6.93;;;2.67;;
73814;SDS011;62145;55.648;37.602;2023-04-25T11:54:11;6.97;;;2.60;;
73814;SDS011;62145;55.648;37.602;2023-04-25T11:56:37;4.88;;;2.50;;
73814;SDS011;62145;55.648;37.602;2023-04-25T11:59:13;5.50;;;2.28;;
73814;SDS011;62145;55.648;37.602;2023-04-25T12:01:40;9.47;;;2.80;;
73814;SDS011;62145;55.648;37.602;2023-04-25T12:07:02;5.47;;;2.30;;
73814;SDS011;62145;55.648;37.602;2023-04-25T12:09:29;7.32;;;3.35;;
73814;SDS011;62145;55.648;37.602;2023-04-25T12:11:56;7.53;;;3.33;;
73814;SDS011;62145;55.648;37.602;2023-04-25T12:14:27;7.32;;;2.70;;
73814;SDS011;62145;55.648;37.602;2023-04-25T12:16:58;8.25;;;2.72;;
73814;SDS011;62145;55.648;37.602;2023-04-25T12:19:25;6.25;;;2.90;;
73814;SDS011;62145;55.648;37.602;2023-04-25T12:21:52;6.70;;;2.75;;
73814;SDS011;62145;55.648;37.602;2023-04-25T12:24:22;7.03;;;2.70;;
73814;SDS011;62145;55.648;37.602;2023-04-25T12:27:03;8.90;;;3.70;;
73814;SDS011;62145;55.648;37.602;2023-04-25T12:29:34;7.70;;;3.60;;
73814;SDS011;62145;55.648;37.602;2023-04-25T12:32:00;7.22;;;2.88;;
73814;SDS011;62145;55.648;37.602;2023-04-25T12:34:35;5.72;;;2.70;;
73814;SDS011;62145;55.648;37.602;2023-04-25T12:37:01;6.03;;;3.10;;
73814;SDS011;62145;55.648;37.602;2023-04-25T12:39:27;10.32;;;3.38;;
73814;SDS011;62145;55.648;37.602;2023-04-25T12:41:52;9.48;;;3.50;;
73814;SDS011;62145;55.648;37.602;2023-04-25T12:44:21;7.10;;;2.80;;
73814;SDS011;62145;55.648;37.602;2023-04-25T12:46:47;5.45;;;2.90;;
73814;SDS011;62145;55.648;37.602;2023-04-25T12:49:14;5.53;;;2.80;;
73814;SDS011;62145;55.648;37.602;2023-04-25T12:51:40;7.10;;;2.80;;
73814;SDS011;62145;55.648;37.602;2023-04-25T12:54:07;6.15;;;2.80;;
73814;SDS011;62145;55.648;37.602;2023-04-25T12:56:33;7.90;;;3.00;;
73814;SDS011;62145;55.648;37.602;2023-04-25T12:59:00;6.60;;;3.05;;
73814;SDS011;62145;55.648;37.602;2023-04-25T13:01:28;7.22;;;3.10;;
73814;SDS011;62145;55.648;37.602;2023-04-25T13:03:54;6.35;;;2.67;;
73814;SDS011;62145;55.648;37.602;2023-04-25T13:06:20;6.85;;;2.72;;
73814;SDS011;62145;55.648;37.602;2023-04-25T13:08:46;7.67;;;2.87;;
73814;SDS011;62145;55.648;37.602;2023-04-25T13:11:12;5.60;;;2.78;;
73814;SDS011;62145;55.648;37.602;2023-04-25T13:13:40;9.55;;;3.25;;
73814;SDS011;62145;55.648;37.602;2023-04-25T13:16:06;8.05;;;3.38;;
73814;SDS011;62145;55.648;37.602;2023-04-25T13:18:32;7.93;;;3.30;;
73814;SDS011;62145;55.648;37.602;2023-04-25T13:20:59;7.85;;;3.72;;
73814;SDS011;62145;55.648;37.602;2023-04-25T13:23:25;6.38;;;3.28;;
73814;SDS011;62145;55.648;37.602;2023-04-25T13:25:52;7.60;;;3.40;;
73814;SDS011;62145;55.648;37.602;2023-04-25T13:28:18;7.63;;;3.00;;
73814;SDS011;62145;55.648;37.602;2023-04-25T13:30:44;8.07;;;3.38;;
73814;SDS011;62145;55.648;37.602;2023-04-25T13:33:13;6.38;;;3.00;;
73814;SDS011;62145;55.648;37.602;2023-04-25T13:35:39;9.00;;;3.60;;
73814;SDS011;62145;55.648;37.602;2023-04-25T13:38:05;6.22;;;2.88;;
73814;SDS011;62145;55.648;37.602;2023-04-25T13:40:31;9.23;;;3.40;;
73814;SDS011;62145;55.648;37.602;2023-04-25T13:42:57;7.47;;;3.38;;
73814;SDS011;62145;55.648;37.602;2023-04-25T13:45:23;8.60;;;3.33;;
73814;SDS011;62145;55.648;37.602;2023-04-25T13:47:49;7.15;;;3.17;;
73814;SDS011;62145;55.648;37.602;2023-04-25T13:50:15;8.33;;;3.50;;
73814;SDS011;62145;55.648;37.602;2023-04-25T13:52:41;7.65;;;3.08;;
73814;SDS011;62145;55.648;37.602;2023-04-25T13:55:07;5.30;;;2.88;;
73814;SDS011;62145;55.648;37.602;2023-04-25T13:57:34;6.32;;;2.80;;
73814;SDS011;62145;55.648;37.602;2023-04-25T14:00:01;5.47;;;2.30;;
73814;SDS011;62145;55.648;37.602;2023-04-25T14:02:32;5.45;;;2.38;;
73814;SDS011;62145;55.648;37.602;2023-04-25T14:04:57;6.43;;;2.63;;
73814;SDS011;62145;55.648;37.602;2023-04-25T14:07:23;6.27;;;2.60;;
73814;SDS011;62145;55.648;37.602;2023-04-25T14:09:50;6.03;;;2.70;;
73814;SDS011;62145;55.648;37.602;2023-04-25T14:12:16;7.57;;;2.90;;
73814;SDS011;62145;55.648;37.602;2023-04-25T14:14:41;6.00;;;2.63;;
73814;SDS011;62145;55.648;37.602;2023-04-25T14:17:08;7.80;;;3.50;;
73814;SDS011;62145;55.648;37.602;2023-04-25T14:19:34;5.63;;;2.97;;
73814;SDS011;62145;55.648;37.602;2023-04-25T14:22:00;8.68;;;3.65;;
73814;SDS011;62145;55.648;37.602;2023-04-25T14:24:26;6.60;;;3.47;;
73814;SDS011;62145;55.648;37.602;2023-04-25T14:26:51;8.07;;;3.00;;
73814;SDS011;62145;55.648;37.602;2023-04-25T14:29:39;7.03;;;3.27;;
73814;SDS011;62145;55.648;37.602;2023-04-25T14:32:04;7.93;;;3.60;;
73814;SDS011;62145;55.648;37.602;2023-04-25T14:34:30;8.23;;;3.33;;
73814;SDS011;62145;55.648;37.602;2023-04-25T14:36:56;7.25;;;3.20;;
73814;SDS011;62145;55.648;37.602;2023-04-25T14:39:22;7.30;;;3.00;;
73814;SDS011;62145;55.648;37.602;2023-04-25T14:41:48;9.18;;;3.30;;
73814;SDS011;62145;55.648;37.602;2023-04-25T14:44:13;11.97;;;3.90;;
73814;SDS011;62145;55.648;37.602;2023-04-25T14:46:41;7.10;;;3.50;;
73814;SDS011;62145;55.648;37.602;2023-04-25T14:49:07;9.38;;;3.88;;
73814;SDS011;62145;55.648;37.602;2023-04-25T14:51:33;8.23;;;3.70;;
73814;SDS011;62145;55.648;37.602;2023-04-25T14:53:59;7.63;;;3.87;;